»·PEaware :: N454MD KSNA-KSNA

N454MD :: KSNA-KSNA

FLIGHT INFORMATION

Flight Status: Arrived
Operator: Privately registered:
United States
More flights under this callsign
Pilot: Richard H. (11485)
Aircraft: PIPER PA-28 CHEROKEE ARCHER
(P28A)
More flights by this aircraft type
Origin: KSNA John Wayne-Orange Co
United States
Destination: KSNA John Wayne-Orange Co
United States
More flights between these airports :: More routes between these airports
Route: +SLI
File this flight plan on PilotEdge
Remarks: I-1 Rating
Altitude:
(Current/Filed)
3,000ft
Speed:
(Current/Filed)
110kts
Departed: 11-Oct-18 06:04 PM
Arrived: 11-Oct-18 06:41 PM
Distance/Time
Traveled:
0nm/0:37
Distance/Time
To Go:
Arrived

Flight Plot

Page will automatically refresh every two minutes.


Map Options




Map Legend


Flown Route
Filed Route
Departure Airport
Arrival Airport
Navaid (VOR, NDB)
Fix

Horizontal Profiles

Position Reports

Time Latitude Longitude Heading Altitude Ground
Speed
11-Oct-18 17:52 33.675400 -117.871534 220 59ft 0kts
11-Oct-18 17:53 33.675398 -117.871536 220 59ft 0kts
11-Oct-18 17:54 33.675396 -117.871538 220 59ft 0kts
11-Oct-18 17:55 33.675394 -117.871540 220 59ft 0kts
11-Oct-18 17:56 33.675392 -117.871542 220 59ft 0kts
11-Oct-18 17:57 33.675390 -117.871544 220 59ft 0kts
11-Oct-18 17:58 33.675388 -117.871546 220 59ft 0kts
11-Oct-18 17:59 33.675386 -117.871547 220 59ft 0kts
11-Oct-18 18:00 33.675384 -117.871549 220 59ft 0kts
11-Oct-18 18:01 33.675383 -117.871551 220 59ft 0kts
11-Oct-18 18:02 33.675291 -117.870651 40 59ft 5kts
11-Oct-18 18:03 33.678565 -117.868643 26 59ft 14kts
11-Oct-18 18:04 33.680976 -117.866788 115 59ft 2kts
11-Oct-18 18:05 33.680928 -117.866671 116 59ft 3kts
11-Oct-18 18:06 33.671588 -117.871263 209 221ft 88kts
11-Oct-18 18:07 33.654480 -117.891201 232 1314ft 89kts
11-Oct-18 18:08 33.638174 -117.916899 232 2038ft 106kts
11-Oct-18 18:09 33.619373 -117.946568 232 2010ft 117kts
11-Oct-18 18:10 33.599798 -117.977171 232 2027ft 115kts
11-Oct-18 18:11 33.580262 -118.007767 231 2032ft 115kts
11-Oct-18 18:12 33.560623 -118.038407 231 2029ft 116kts
11-Oct-18 18:13 33.541111 -118.069185 231 2041ft 115kts
11-Oct-18 18:14 33.521521 -118.099933 231 2044ft 116kts
11-Oct-18 18:15 33.501856 -118.130626 231 2045ft 116kts
11-Oct-18 18:16 33.500200 -118.167221 289 2802ft 113kts
11-Oct-18 18:17 33.529905 -118.170708 30 3030ft 130kts
11-Oct-18 18:18 33.560691 -118.148879 31 3035ft 134kts
11-Oct-18 18:19 33.588650 -118.128933 31 3039ft 135kts
11-Oct-18 18:20 33.617770 -118.108007 30 3040ft 135kts
11-Oct-18 18:21 33.649174 -118.083381 40 3039ft 134kts
11-Oct-18 18:22 33.677288 -118.053560 42 3015ft 134kts
11-Oct-18 18:23 33.705060 -118.024111 42 3013ft 133kts
11-Oct-18 18:24 33.732801 -117.994313 42 3014ft 133kts
11-Oct-18 18:25 33.758006 -117.967335 42 3015ft 133kts
11-Oct-18 18:26 33.785885 -117.937627 42 3002ft 134kts
11-Oct-18 18:27 33.813774 -117.907867 42 2992ft 134kts
11-Oct-18 18:28 33.841817 -117.878175 42 2987ft 134kts
11-Oct-18 18:29 33.869746 -117.848555 42 2978ft 134kts
11-Oct-18 18:30 33.897886 -117.818900 41 2977ft 134kts
11-Oct-18 18:31 33.925986 -117.789310 41 2973ft 134kts
11-Oct-18 18:32 33.927420 -117.755987 167 2953ft 117kts
11-Oct-18 18:33 33.895148 -117.754324 181 2971ft 116kts
11-Oct-18 18:34 33.862763 -117.753738 186 2971ft 116kts
11-Oct-18 18:35 33.832880 -117.767011 209 2970ft 114kts
11-Oct-18 18:36 33.805834 -117.786968 208 2971ft 114kts
11-Oct-18 18:37 33.778349 -117.804563 205 2372ft 116kts
11-Oct-18 18:38 33.752447 -117.820275 209 1664ft 88kts
11-Oct-18 18:39 33.734303 -117.831480 208 1312ft 74kts
11-Oct-18 18:40 33.715946 -117.843017 211 863ft 74kts
11-Oct-18 18:41 33.697869 -117.854604 211 458ft 72kts
11-Oct-18 18:42 33.680932 -117.865452 211 76ft 56kts
11-Oct-18 18:43 33.678009 -117.868255 304 59ft 3kts
11-Oct-18 18:44 33.677307 -117.869414 205 59ft 15kts

Navigation Log

Ident Type
1. KSNA Airport
2. SLI Navaid
3. KSNA Airport